M I D A S
Marine Information and Data Acquisition System
Tripno 1600 of the Zeeleeuw from 2008-10-31 07:38:19 to 2008-10-31 15:32:40
Back to CruiseResearch ActivitiesStationsMapUnderway DataData graphs

EquipmentUnitsComment
TimeDGPSUTC
LatitudeDGPSDM.mWGS84
LongitudeDGPSDM.mWGS84
HeadingGyrodeg 
SOGDGPSknotsSpeed over ground
COGDGPSdegCourse over ground
DepthEcho soundermeters200 kHz
Missing or incorrect values are displayed as -999
Navigation data collected by the RV Zeeleeuw from 2008-10-31 07:39:31 to 2008-10-31 15:34:55
                                                                                    Next 1000 lines
Time Latitude Longitude Heading SOG COG Depth
2008-10-31 07:39:43 51°13.624 2°56.041 105.2 1.2 284 6.8
2008-10-31 07:39:48 51°13.625 2°56.037 105.1 1.6 290 6.6
2008-10-31 07:39:53 51°13.625 2°56.033 105.4 2.1 289 6.8
2008-10-31 07:39:58 51°13.626 2°56.028 105.8 2.5 290 -999
2008-10-31 07:40:04 51°13.628 2°56.021 106.3 2.8 290 -999
2008-10-31 07:40:09 51°13.629 2°56.014 106.6 3.2 291 -999
2008-10-31 07:40:15 51°13.631 2°56.006 106.6 3.3 290 -999
2008-10-31 07:40:20 51°13.633 2°55.998 106.5 3.5 290 -999
2008-10-31 07:40:26 51°13.635 2°55.989 106.3 3.7 288 -999
2008-10-31 07:40:31 51°13.636 2°55.981 106.1 3.8 288 -999
2008-10-31 07:40:36 51°13.638 2°55.973 106.3 3.9 287 -999
2008-10-31 07:40:41 51°13.64 2°55.965 106.9 4.1 288 -999
2008-10-31 07:40:46 51°13.641 2°55.956 107.8 4.3 288 -999
2008-10-31 07:40:51 51°13.643 2°55.947 108.9 4.4 290 -999
2008-10-31 07:40:56 51°13.646 2°55.937 109.7 4.5 290 -999
2008-10-31 07:41:01 51°13.648 2°55.928 110.9 4.6 292 -999
2008-10-31 07:41:06 51°13.65 2°55.918 112.3 4.8 293 -999
2008-10-31 07:41:11 51°13.653 2°55.908 114.1 4.9 295 -999
2008-10-31 07:41:16 51°13.656 2°55.899 115.4 4.9 296 -999
2008-10-31 07:41:21 51°13.659 2°55.889 116.9 4.8 298 -999
2008-10-31 07:41:26 51°13.662 2°55.88 117.8 4.6 298 -999
2008-10-31 07:41:31 51°13.665 2°55.872 118.7 4.4 300 -999
2008-10-31 07:41:36 51°13.668 2°55.863 118.9 4.3 300 -999
2008-10-31 07:41:41 51°13.671 2°55.855 119.2 4.3 300 -999
2008-10-31 07:41:46 51°13.674 2°55.847 119.5 4.2 300 -999
2008-10-31 07:41:51 51°13.677 2°55.84 119.7 4.1 301 -999
2008-10-31 07:41:56 51°13.68 2°55.832 119.8 4 301 -999
2008-10-31 07:42:01 51°13.683 2°55.825 120 3.8 302 -999
2008-10-31 07:42:06 51°13.685 2°55.818 120.2 3.6 302 -999
2008-10-31 07:42:11 51°13.688 2°55.812 120.9 3.3 304 -999
2008-10-31 07:42:16 51°13.69 2°55.807 121.5 2.9 304 -999
2008-10-31 07:42:21 51°13.692 2°55.803 121.3 1.9 304 8.8
2008-10-31 07:42:26 51°13.692 2°55.802 120 1.3 309 9
2008-10-31 07:42:31 51°13.693 2°55.801 118.4 0.6 304 9.1
2008-10-31 07:42:35 51°13.694 2°55.8 113.9 0.7 318 9.1
2008-10-31 07:42:40 51°13.694 2°55.798 109.3 0.8 293 9.2
2008-10-31 07:42:45 51°13.695 2°55.796 106.1 1 301 9.4
2008-10-31 07:42:50 51°13.695 2°55.793 103.4 1.3 286 9.6
2008-10-31 07:42:55 51°13.696 2°55.79 101.4 1.5 288 9.8
2008-10-31 07:42:59 51°13.696 2°55.787 98.7 1.8 282 9.9
2008-10-31 07:43:04 51°13.697 2°55.782 96.7 2.1 282 10.1
2008-10-31 07:43:09 51°13.697 2°55.777 94.7 2.4 278 -999
2008-10-31 07:43:15 51°13.698 2°55.77 92.8 2.6 277 -999
2008-10-31 07:43:20 51°13.698 2°55.764 90.4 2.7 274 -999
2008-10-31 07:43:25 51°13.698 2°55.758 88.4 2.7 272 -999
2008-10-31 07:43:31 51°13.698 2°55.751 86.2 2.6 270 -999
2008-10-31 07:43:36 51°13.698 2°55.746 84.8 2.5 269 -999
2008-10-31 07:43:41 51°13.698 2°55.741 83.9 2.1 267 -999
2008-10-31 07:43:46 51°13.698 2°55.737 82.9 1.8 269 -999
2008-10-31 07:43:51 51°13.698 2°55.734 81.5 1.4 266 -999
2008-10-31 07:43:56 51°13.698 2°55.732 79.4 1.2 271 -999
2008-10-31 07:44:01 51°13.698 2°55.73 77.3 0.9 268 -999
2008-10-31 07:44:06 51°13.698 2°55.729 75.4 0.7 269 11.2
2008-10-31 07:44:11 51°13.698 2°55.728 73.8 0.5 275 11.7
2008-10-31 07:44:16 51°13.698 2°55.727 71.8 0.3 284 11.8
2008-10-31 07:44:20 51°13.698 2°55.727 69.4 0.2 327 11.8
2008-10-31 07:44:25 51°13.698 2°55.727 66.7 0.2 1 11.9
2008-10-31 07:44:30 51°13.699 2°55.727 64.5 0.4 22 12.1
2008-10-31 07:44:35 51°13.699 2°55.728 61.3 0.5 29 12.1
2008-10-31 07:44:40 51°13.7 2°55.729 57.1 0.6 33 11.9
2008-10-31 07:44:44 51°13.701 2°55.73 53.2 0.7 35 11.6
2008-10-31 07:44:49 51°13.702 2°55.731 50 0.9 33 11.4
2008-10-31 07:44:53 51°13.703 2°55.731 45.8 1 31 11
2008-10-31 07:44:59 51°13.704 2°55.733 40.6 1.1 28 10.9
2008-10-31 07:45:03 51°13.706 2°55.734 36.3 1.4 24 11.1
2008-10-31 07:45:08 51°13.708 2°55.735 31.4 1.6 19 11.5
2008-10-31 07:45:12 51°13.71 2°55.736 27.1 2.1 16 11.6
2008-10-31 07:45:18 51°13.715 2°55.737 20.7 2.7 10 11.4
2008-10-31 07:45:23 51°13.719 2°55.737 10.9 3.1 2 11.9
2008-10-31 07:45:28 51°13.724 2°55.736 4 3.5 354 11.5
2008-10-31 07:45:32 51°13.728 2°55.734 355 3.8 345 11.3
2008-10-31 07:45:38 51°13.735 2°55.73 346.1 4.2 339 11.1
2008-10-31 07:45:43 51°13.741 2°55.725 337.7 4.8 331 10.8
2008-10-31 07:45:48 51°13.747 2°55.72 332.3 5.2 332 10.5
2008-10-31 07:45:52 51°13.752 2°55.715 328.9 5.6 328 10
2008-10-31 07:45:58 51°13.761 2°55.706 327.5 5.9 327 9.8
2008-10-31 07:46:03 51°13.768 2°55.698 327.2 6.3 327 9.6
2008-10-31 07:46:08 51°13.776 2°55.69 327.6 6.6 327 9.7
2008-10-31 07:46:12 51°13.782 2°55.683 327.9 6.8 328 9.6
2008-10-31 07:46:18 51°13.792 2°55.674 328.1 7 328 9.6
2008-10-31 07:46:23 51°13.801 2°55.665 328.6 7.2 329 9.6
2008-10-31 07:46:28 51°13.809 2°55.657 329.4 7.4 330 10.1
2008-10-31 07:46:33 51°13.819 2°55.649 330.3 7.5 331 10.1
2008-10-31 07:46:38 51°13.828 2°55.64 330.4 7.7 330 10.3
2008-10-31 07:46:43 51°13.837 2°55.632 330.1 7.6 331 10
2008-10-31 07:46:48 51°13.846 2°55.624 330.1 7.5 331 10
2008-10-31 07:46:52 51°13.853 2°55.618 330.9 7.3 333 9.9
2008-10-31 07:46:58 51°13.864 2°55.609 332.5 7.2 332 10.3
2008-10-31 07:47:03 51°13.872 2°55.602 333 7 333 10.1
2008-10-31 07:47:08 51°13.881 2°55.595 333.1 6.9 332 10.1
2008-10-31 07:47:12 51°13.888 2°55.589 333.1 6.8 334 10.1
2008-10-31 07:47:18 51°13.898 2°55.581 333.3 6.7 333 10
2008-10-31 07:47:23 51°13.906 2°55.574 333.3 6.7 334 10.1
2008-10-31 07:47:28 51°13.914 2°55.567 333.2 6.6 333 10.3
2008-10-31 07:47:32 51°13.92 2°55.561 332.8 6.6 333 10.2
2008-10-31 07:47:38 51°13.929 2°55.553 332.5 6.5 333 10.2
2008-10-31 07:47:43 51°13.938 2°55.547 332.9 6.4 334 10.1
2008-10-31 07:47:48 51°13.946 2°55.541 333.5 6.4 334 10.1
2008-10-31 07:47:52 51°13.952 2°55.536 333.8 6.5 334 10.1
2008-10-31 07:47:58 51°13.962 2°55.529 333.9 6.5 334 10
2008-10-31 07:48:03 51°13.97 2°55.522 333.8 6.5 334 10
2008-10-31 07:48:08 51°13.978 2°55.516 333.8 6.5 334 9.9
2008-10-31 07:48:12 51°13.985 2°55.511 334.1 6.5 335 9.9
2008-10-31 07:48:18 51°13.995 2°55.504 334.5 6.6 334 9.8
2008-10-31 07:48:23 51°14.003 2°55.497 334.4 6.7 334 9.3
2008-10-31 07:48:28 51°14.012 2°55.491 334.2 6.8 334 9.1
2008-10-31 07:48:32 51°14.019 2°55.485 334.2 6.9 334 9
2008-10-31 07:48:38 51°14.029 2°55.477 334.3 7.1 335 9.1
2008-10-31 07:48:43 51°14.038 2°55.47 334.9 7.3 334 8.9
2008-10-31 07:48:48 51°14.048 2°55.463 334.9 7.5 334 9
2008-10-31 07:48:53 51°14.058 2°55.455 334.9 7.9 334 9
2008-10-31 07:48:58 51°14.068 2°55.447 334.6 8.2 334 9.2
2008-10-31 07:49:03 51°14.079 2°55.439 334.9 8.6 335 9.2
2008-10-31 07:49:08 51°14.09 2°55.43 335.2 8.8 334 8.7
2008-10-31 07:49:13 51°14.101 2°55.422 334.8 9 334 8.7
2008-10-31 07:49:18 51°14.113 2°55.413 334.9 9.1 335 9
2008-10-31 07:49:23 51°14.124 2°55.404 334.8 9.3 333 9.6
2008-10-31 07:49:28 51°14.136 2°55.395 335.1 9.5 335 9.5
2008-10-31 07:49:32 51°14.146 2°55.387 334.9 9.7 332 9.7
2008-10-31 07:49:38 51°14.16 2°55.374 332.7 9.9 331 9.7
2008-10-31 07:49:43 51°14.172 2°55.362 331.5 10.1 330 9.8
2008-10-31 07:49:48 51°14.184 2°55.35 330.1 10.3 326 9.4
2008-10-31 07:49:53 51°14.196 2°55.337 328 10.5 326 9.8
2008-10-31 07:49:58 51°14.208 2°55.324 327.1 10.7 326 9.6
2008-10-31 07:50:03 51°14.22 2°55.309 325.7 10.9 323 9.3
2008-10-31 07:50:08 51°14.232 2°55.294 323.8 10.9 322 9.6
2008-10-31 07:50:12 51°14.242 2°55.282 323.7 11 322 9.5
2008-10-31 07:50:18 51°14.256 2°55.262 322 11.2 318 9.5
2008-10-31 07:50:23 51°14.267 2°55.244 318.3 11.3 315 9.2
2008-10-31 07:50:28 51°14.277 2°55.226 315.2 11.3 314 9.2
2008-10-31 07:50:32 51°14.286 2°55.211 313.9 11.3 312 9.1
2008-10-31 07:50:38 51°14.298 2°55.188 311.1 11.3 309 9.1
2008-10-31 07:50:43 51°14.308 2°55.168 309.8 11.4 309 9.1
2008-10-31 07:50:48 51°14.317 2°55.148 309.6 11.4 308 9.4
2008-10-31 07:50:53 51°14.327 2°55.128 308.2 11.5 306 9.4
2008-10-31 07:50:58 51°14.336 2°55.107 305.9 11.6 304 9.5
2008-10-31 07:51:03 51°14.345 2°55.085 305.1 11.6 305 9.5
2008-10-31 07:51:08 51°14.354 2°55.064 305.5 11.7 305 9.7
2008-10-31 07:51:12 51°14.361 2°55.046 304.8 11.8 302 9.4
2008-10-31 07:51:18 51°14.371 2°55.02 302.5 11.8 301 9.3
2008-10-31 07:51:23 51°14.379 2°54.997 302.1 11.8 301 9.1
2008-10-31 07:51:28 51°14.388 2°54.975 302.4 11.8 300 9.2
2008-10-31 07:51:32 51°14.394 2°54.956 302.1 11.9 300 9.2
2008-10-31 07:51:38 51°14.404 2°54.929 301.8 12 300 9.3
2008-10-31 07:51:43 51°14.413 2°54.906 302.5 12.1 303 9.5
2008-10-31 07:51:48 51°14.423 2°54.885 305.5 12.2 307 9.6
2008-10-31 07:51:52 51°14.432 2°54.869 310.4 12.1 311 9.8
2008-10-31 07:51:58 51°14.447 2°54.846 315.4 12.1 315 10
2008-10-31 07:52:03 51°14.459 2°54.828 318.3 12.1 317 10.2
2008-10-31 07:52:08 51°14.472 2°54.81 320 12.1 319 10
2008-10-31 07:52:12 51°14.482 2°54.798 322.9 12.1 323 9.9
2008-10-31 07:52:18 51°14.499 2°54.78 327.4 12 327 9.4
2008-10-31 07:52:22 51°14.51 2°54.769 331.2 12 329 9.6
2008-10-31 07:52:28 51°14.527 2°54.752 333 12 328 9.2
2008-10-31 07:52:33 51°14.541 2°54.737 332.5 12 326 9.1
2008-10-31 07:52:38 51°14.555 2°54.722 330.2 12.1 324 9
2008-10-31 07:52:43 51°14.568 2°54.706 329.3 12.1 325 8.9
2008-10-31 07:52:48 51°14.582 2°54.69 329.4 12.1 325 8.7
2008-10-31 07:52:52 51°14.593 2°54.678 329.9 12.1 325 8.8
2008-10-31 07:52:58 51°14.609 2°54.659 329.5 12.1 323 8.7
2008-10-31 07:53:03 51°14.623 2°54.644 329.2 12.2 324 8.7
2008-10-31 07:53:08 51°14.637 2°54.627 329.1 12.2 324 8.8
2008-10-31 07:53:12 51°14.648 2°54.615 328.9 12.2 324 8.7
2008-10-31 07:53:18 51°14.664 2°54.596 328.9 12.2 324 8.8
2008-10-31 07:53:23 51°14.678 2°54.58 328.9 12.2 324 8.6
2008-10-31 07:53:28 51°14.692 2°54.565 328.9 12.2 325 8.8
2008-10-31 07:53:32 51°14.703 2°54.552 329.8 12.2 325 8.6
2008-10-31 07:53:38 51°14.719 2°54.534 330 12.2 325 8.8
2008-10-31 07:53:43 51°14.733 2°54.519 330.3 12.1 325 8.9
2008-10-31 07:53:48 51°14.747 2°54.503 330.2 12.1 326 8.7
2008-10-31 07:53:52 51°14.758 2°54.491 330.7 12.1 326 8.6
2008-10-31 07:53:58 51°14.775 2°54.474 330.9 12.1 326 8.8
2008-10-31 07:54:03 51°14.788 2°54.459 331.2 11.9 326 8.7
2008-10-31 07:54:08 51°14.802 2°54.445 331.5 11.9 327 8.8
2008-10-31 07:54:12 51°14.813 2°54.433 331.6 12 327 8.8
2008-10-31 07:54:18 51°14.83 2°54.416 331.6 11.9 327 8.6
2008-10-31 07:54:23 51°14.843 2°54.401 331.4 11.8 326 8.6
2008-10-31 07:54:28 51°14.857 2°54.387 331.2 11.8 326 8.4
2008-10-31 07:54:32 51°14.868 2°54.375 331.2 11.8 327 8.4
2008-10-31 07:54:38 51°14.885 2°54.358 331.4 11.8 327 8.3
2008-10-31 07:54:42 51°14.896 2°54.347 332.1 11.7 328 8.1
2008-10-31 07:54:48 51°14.912 2°54.331 332.5 11.7 328 7.7
2008-10-31 07:54:53 51°14.926 2°54.317 332.9 11.7 329 8
2008-10-31 07:54:58 51°14.94 2°54.304 333.4 11.6 329 7.7
2008-10-31 07:55:03 51°14.954 2°54.291 333.8 11.6 329 7.7
2008-10-31 07:55:08 51°14.967 2°54.278 334 11.6 329 7.6
2008-10-31 07:55:13 51°14.981 2°54.265 334.5 11.5 330 5.6
2008-10-31 07:55:18 51°14.995 2°54.252 334.5 11.6 329 7.5
2008-10-31 07:55:23 51°15.009 2°54.239 334.5 11.6 330 5.6
2008-10-31 07:55:28 51°15.023 2°54.226 334.9 11.6 330 7.5
2008-10-31 07:55:32 51°15.034 2°54.216 335.3 11.6 330 7.5
2008-10-31 07:55:38 51°15.051 2°54.201 335.4 11.6 330 7.5
2008-10-31 07:55:43 51°15.065 2°54.188 335 11.6 329 7.5
2008-10-31 07:55:48 51°15.078 2°54.175 334.9 11.7 329 7.6
2008-10-31 07:55:52 51°15.09 2°54.164 334.8 11.7 329 7.7
2008-10-31 07:55:58 51°15.106 2°54.149 334.9 11.7 330 7.7
2008-10-31 07:56:03 51°15.12 2°54.135 335 11.7 329 7.7
2008-10-31 07:56:08 51°15.134 2°54.122 334.9 11.7 329 7.8
2008-10-31 07:56:12 51°15.145 2°54.111 334.7 11.8 329 7.8
2008-10-31 07:56:18 51°15.162 2°54.096 334.7 11.7 329 7.8
2008-10-31 07:56:23 51°15.176 2°54.082 334.8 11.8 329 7.9
2008-10-31 07:56:28 51°15.19 2°54.069 334.7 11.8 329 7.9
2008-10-31 07:56:32 51°15.201 2°54.058 334.8 11.8 329 7.9
2008-10-31 07:56:38 51°15.218 2°54.042 335 11.7 329 7.8
2008-10-31 07:56:43 51°15.232 2°54.028 334.9 11.7 329 8
2008-10-31 07:56:48 51°15.246 2°54.015 334.8 11.8 329 8.1
2008-10-31 07:56:52 51°15.258 2°54.004 334.5 11.8 330 8
2008-10-31 07:56:58 51°15.275 2°53.989 335 11.7 330 8.2
2008-10-31 07:57:03 51°15.289 2°53.975 335.2 11.8 329 8.1
2008-10-31 07:57:08 51°15.302 2°53.962 334.7 11.8 328 8.2
2008-10-31 07:57:12 51°15.314 2°53.95 334.2 11.9 328 8.2
2008-10-31 07:57:18 51°15.331 2°53.935 335 11.8 330 8.3
2008-10-31 07:57:23 51°15.345 2°53.92 335.4 11.8 329 8.4
2008-10-31 07:57:28 51°15.359 2°53.908 335.8 11.8 330 8.5
2008-10-31 07:57:32 51°15.37 2°53.897 335.8 11.8 328 8.9
2008-10-31 07:57:38 51°15.386 2°53.88 334.9 11.8 328 8.6
2008-10-31 07:57:43 51°15.4 2°53.866 334.7 11.8 328 8.6
2008-10-31 07:57:48 51°15.414 2°53.853 334.8 11.8 329 8.6
2008-10-31 07:57:52 51°15.425 2°53.842 335.7 11.8 330 8.8
2008-10-31 07:57:58 51°15.442 2°53.826 335.4 11.9 327 9.3
2008-10-31 07:58:03 51°15.456 2°53.812 334.8 11.9 329 9.4
2008-10-31 07:58:08 51°15.47 2°53.798 335 11.9 328 9
2008-10-31 07:58:12 51°15.481 2°53.787 335.2 11.9 329 9.4
2008-10-31 07:58:18 51°15.498 2°53.771 335.4 11.9 328 9.5
2008-10-31 07:58:23 51°15.512 2°53.757 335.2 11.9 329 9.8
2008-10-31 07:58:28 51°15.527 2°53.744 335.4 11.9 329 9.7
2008-10-31 07:58:32 51°15.538 2°53.734 336.4 11.9 331 10.3
2008-10-31 07:58:38 51°15.555 2°53.718 336.9 11.9 331 10.1
2008-10-31 07:58:43 51°15.57 2°53.706 337.7 11.9 331 10.5
2008-10-31 07:58:48 51°15.584 2°53.693 337.6 11.9 331 10.5
2008-10-31 07:58:52 51°15.596 2°53.683 337.9 11.9 332 10.2
2008-10-31 07:58:58 51°15.613 2°53.668 338.1 11.9 331 9.9
2008-10-31 07:59:03 51°15.627 2°53.656 338.2 11.9 332 10.4
2008-10-31 07:59:08 51°15.642 2°53.643 338.7 11.8 332 10.3
2008-10-31 07:59:12 51°15.653 2°53.633 338.5 11.9 331 10.3
2008-10-31 07:59:18 51°15.671 2°53.618 338.2 11.9 332 10.5
2008-10-31 07:59:22 51°15.682 2°53.608 338.2 11.9 332 10.7
2008-10-31 07:59:28 51°15.7 2°53.593 338.1 11.9 332 10.8
2008-10-31 07:59:33 51°15.714 2°53.581 338.2 11.9 332 10.7
2008-10-31 07:59:38 51°15.728 2°53.568 338.3 11.9 331 10.7
2008-10-31 07:59:43 51°15.743 2°53.555 338.2 11.9 332 10.7
2008-10-31 07:59:48 51°15.757 2°53.543 338.3 11.9 332 10.9
2008-10-31 07:59:52 51°15.769 2°53.532 338.1 11.8 331 11.1
2008-10-31 07:59:58 51°15.786 2°53.517 338 11.9 331 10.7
2008-10-31 08:00:03 51°15.8 2°53.505 338 11.9 331 10.5
2008-10-31 08:00:08 51°15.815 2°53.492 338.1 11.9 331 11
2008-10-31 08:00:12 51°15.826 2°53.482 337.8 11.9 331 11.1
2008-10-31 08:00:18 51°15.844 2°53.467 337.8 11.9 331 11.2
2008-10-31 08:00:23 51°15.858 2°53.454 337.8 11.8 331 10.7
2008-10-31 08:00:28 51°15.872 2°53.442 337.7 11.8 331 10.3
2008-10-31 08:00:32 51°15.884 2°53.432 338 11.9 331 10.3
2008-10-31 08:00:38 51°15.901 2°53.416 337.9 11.8 330 10
2008-10-31 08:00:43 51°15.915 2°53.403 337.4 11.8 330 10.2
2008-10-31 08:00:48 51°15.929 2°53.39 337.4 11.8 331 10.2
2008-10-31 08:00:52 51°15.941 2°53.38 337.9 11.8 332 10.8
2008-10-31 08:00:58 51°15.958 2°53.364 338.1 11.9 331 10.2
2008-10-31 08:01:03 51°15.972 2°53.352 337.9 11.9 331 10.3
2008-10-31 08:01:08 51°15.987 2°53.34 338.7 11.9 333 10.4
2008-10-31 08:01:12 51°15.999 2°53.33 338.7 11.9 330 10.3
2008-10-31 08:01:18 51°16.016 2°53.315 338.1 11.8 332 10.3
2008-10-31 08:01:23 51°16.03 2°53.302 338.5 11.9 332 10.5
2008-10-31 08:01:28 51°16.045 2°53.29 339.3 11.8 332 10.4
2008-10-31 08:01:32 51°16.057 2°53.28 339.7 11.8 333 10.4
2008-10-31 08:01:38 51°16.074 2°53.266 340.4 11.9 332 10.6
2008-10-31 08:01:43 51°16.089 2°53.254 340.5 11.8 332 10.5
2008-10-31 08:01:48 51°16.104 2°53.242 339.8 11.9 332 10.6
2008-10-31 08:01:52 51°16.116 2°53.232 339.6 11.9 333 10.6
2008-10-31 08:01:58 51°16.134 2°53.217 339.7 11.9 332 10.7
2008-10-31 08:02:03 51°16.148 2°53.203 339.1 11.9 329 10.7
2008-10-31 08:02:08 51°16.162 2°53.19 338 11.9 329 10.8
2008-10-31 08:02:12 51°16.173 2°53.179 337.7 11.9 329 10.7
2008-10-31 08:02:18 51°16.19 2°53.163 337.9 11.9 329 10.7
2008-10-31 08:02:23 51°16.204 2°53.149 337.9 11.9 329 10.8
2008-10-31 08:02:28 51°16.218 2°53.136 338.1 11.8 330 10.6
2008-10-31 08:02:33 51°16.232 2°53.122 337.8 11.8 328 10.8
2008-10-31 08:02:38 51°16.245 2°53.108 337.4 11.9 327 10.7
2008-10-31 08:02:43 51°16.259 2°53.094 336.8 11.9 327 10.8
2008-10-31 08:02:48 51°16.273 2°53.08 336.6 11.9 328 10.8
2008-10-31 08:02:52 51°16.285 2°53.069 337.5 11.8 329 10.7
2008-10-31 08:02:58 51°16.302 2°53.053 338.5 11.8 330 10.7
2008-10-31 08:03:03 51°16.316 2°53.041 339.3 11.7 331 10.8
2008-10-31 08:03:08 51°16.33 2°53.028 339.6 11.8 330 10.8
2008-10-31 08:03:12 51°16.342 2°53.018 340.3 11.7 332 10.8
2008-10-31 08:03:18 51°16.359 2°53.003 340.7 11.8 331 10.9
2008-10-31 08:03:23 51°16.373 2°52.992 341 11.7 334 10.8
2008-10-31 08:03:28 51°16.388 2°52.98 341.7 11.8 333 10.9
2008-10-31 08:03:32 51°16.4 2°52.971 341.8 11.8 333 10.8
2008-10-31 08:03:38 51°16.417 2°52.957 341.6 11.8 333 10.7
2008-10-31 08:03:43 51°16.432 2°52.945 341.6 11.8 334 10.9
2008-10-31 08:03:48 51°16.446 2°52.934 341.7 11.8 334 10.8
2008-10-31 08:03:52 51°16.458 2°52.924 341.9 11.8 334 10.9
2008-10-31 08:03:58 51°16.476 2°52.91 341.9 11.9 333 10.7
2008-10-31 08:04:03 51°16.49 2°52.898 341.4 11.9 333 10.6
2008-10-31 08:04:08 51°16.505 2°52.887 341.3 11.9 334 10.7
2008-10-31 08:04:12 51°16.517 2°52.877 341.6 11.9 333 10.6
2008-10-31 08:04:18 51°16.535 2°52.863 341.4 11.9 334 10.6
2008-10-31 08:04:23 51°16.55 2°52.852 341.6 11.9 334 10.8
2008-10-31 08:04:28 51°16.564 2°52.841 341.8 11.9 334 10.7
2008-10-31 08:04:33 51°16.579 2°52.829 341.8 11.8 335 10.6
2008-10-31 08:04:38 51°16.594 2°52.819 341.9 11.7 337 10.4
2008-10-31 08:04:43 51°16.61 2°52.809 342.6 11.6 338 10.4
2008-10-31 08:04:48 51°16.625 2°52.799 343 11.7 338 10.4
2008-10-31 08:04:53 51°16.64 2°52.788 342.6 11.7 336 10.2
2008-10-31 08:04:58 51°16.655 2°52.778 341.8 11.6 337 10.2
2008-10-31 08:05:03 51°16.669 2°52.768 341.9 11.6 337 10
2008-10-31 08:05:08 51°16.684 2°52.758 341.8 11.6 337 10
2008-10-31 08:05:12 51°16.695 2°52.75 341.4 11.6 336 9.8
2008-10-31 08:05:18 51°16.713 2°52.738 341.7 11.6 337 9.6
2008-10-31 08:05:23 51°16.727 2°52.727 341.8 11.5 336 9.4
2008-10-31 08:05:28 51°16.741 2°52.717 341.2 11.5 335 9.1
2008-10-31 08:05:32 51°16.753 2°52.709 341 11.4 336 8.8
2008-10-31 08:05:38 51°16.77 2°52.697 341.3 11.4 336 8.7
2008-10-31 08:05:43 51°16.784 2°52.686 341.4 11.4 337 8.8
2008-10-31 08:05:48 51°16.799 2°52.676 341.6 11.4 336 8.8
2008-10-31 08:05:52 51°16.81 2°52.668 341.2 11.3 335 8.6
2008-10-31 08:05:58 51°16.827 2°52.655 340.9 11.4 336 8.6
2008-10-31 08:06:03 51°16.841 2°52.645 341 11.3 336 8.4
2008-10-31 08:06:08 51°16.855 2°52.634 340.8 11.3 334 8.4
2008-10-31 08:06:12 51°16.867 2°52.626 341 11.2 336 8.5
2008-10-31 08:06:18 51°16.884 2°52.613 341 11.2 335 8.6
2008-10-31 08:06:23 51°16.898 2°52.603 341 11.3 335 8.6
2008-10-31 08:06:28 51°16.912 2°52.592 340.7 11.3 335 8.8
2008-10-31 08:06:32 51°16.924 2°52.584 341 11.4 336 8.8
2008-10-31 08:06:38 51°16.941 2°52.572 342.3 11.3 338 9
2008-10-31 08:06:43 51°16.956 2°52.563 342.7 11.3 337 8.9
2008-10-31 08:06:48 51°16.971 2°52.553 343.4 11.4 338 8.7
2008-10-31 08:06:52 51°16.983 2°52.545 343.6 11.3 338 8.6
2008-10-31 08:06:58 51°17 2°52.534 343.8 11.3 338 8.7
2008-10-31 08:07:03 51°17.015 2°52.525 344.4 11.3 338 8.6
2008-10-31 08:07:08 51°17.029 2°52.515 344.4 11.3 338 8.6
2008-10-31 08:07:12 51°17.041 2°52.508 344.3 11.4 338 8.7
2008-10-31 08:07:18 51°17.058 2°52.497 344.6 11.3 338 8.6
2008-10-31 08:07:23 51°17.073 2°52.488 344.4 11.4 339 8.6
2008-10-31 08:07:28 51°17.087 2°52.479 344.4 11.4 338 8.7
2008-10-31 08:07:32 51°17.099 2°52.471 344.3 11.4 338 8.8
2008-10-31 08:07:38 51°17.116 2°52.459 343.4 11.4 336 8.7
2008-10-31 08:07:43 51°17.131 2°52.449 343.2 11.4 338 8.9
2008-10-31 08:07:48 51°17.146 2°52.439 343.1 11.5 336 9
2008-10-31 08:07:52 51°17.157 2°52.431 343 11.4 337 9
2008-10-31 08:07:58 51°17.175 2°52.419 342.7 11.5 336 8.8
2008-10-31 08:08:03 51°17.189 2°52.409 342 11.5 336 9.1
2008-10-31 08:08:08 51°17.203 2°52.398 342 11.5 335 9
2008-10-31 08:08:12 51°17.215 2°52.389 341.6 11.5 335 9
2008-10-31 08:08:18 51°17.232 2°52.376 341.6 11.5 335 9.2
2008-10-31 08:08:23 51°17.247 2°52.365 341.5 11.6 334 9.2
2008-10-31 08:08:28 51°17.261 2°52.354 341 11.5 334 9.2
2008-10-31 08:08:33 51°17.275 2°52.343 340.7 11.5 333 9.2
2008-10-31 08:08:38 51°17.29 2°52.332 340.4 11.5 333 9.2
2008-10-31 08:08:43 51°17.304 2°52.319 339.6 11.6 332 9.2
2008-10-31 08:08:48 51°17.318 2°52.308 339.2 11.5 333 9.3
2008-10-31 08:08:52 51°17.329 2°52.298 339 11.5 331 9.3
2008-10-31 08:08:58 51°17.346 2°52.283 338.4 11.5 332 9.5
2008-10-31 08:09:03 51°17.36 2°52.271 338.3 11.6 331 9.4
2008-10-31 08:09:08 51°17.374 2°52.259 338.1 11.6 331 9.5
2008-10-31 08:09:12 51°17.385 2°52.249 337.9 11.5 331 9.3
2008-10-31 08:09:18 51°17.402 2°52.234 338 11.5 331 9.3
2008-10-31 08:09:23 51°17.415 2°52.221 337.7 11.5 330 9.5
2008-10-31 08:09:28 51°17.429 2°52.209 337.3 11.4 331 9.4
2008-10-31 08:09:32 51°17.441 2°52.198 337.7 11.5 330 9.5
2008-10-31 08:09:38 51°17.457 2°52.182 336.9 11.5 328 9.4
2008-10-31 08:09:43 51°17.47 2°52.169 336 11.5 328 9.5
2008-10-31 08:09:48 51°17.484 2°52.155 335.2 11.5 328 9.7
2008-10-31 08:09:52 51°17.494 2°52.145 334.9 11.4 329 9.3
2008-10-31 08:09:58 51°17.51 2°52.129 335.2 11.4 328 9.4
2008-10-31 08:10:03 51°17.524 2°52.116 334.5 11.4 328 9.4
2008-10-31 08:10:08 51°17.537 2°52.102 334.1 11.5 327 9.4
2008-10-31 08:10:12 51°17.548 2°52.091 334 11.5 326 9.8
2008-10-31 08:10:18 51°17.563 2°52.074 333.7 11.5 327 9.6
2008-10-31 08:10:23 51°17.577 2°52.06 333.8 11.5 327 9.4
2008-10-31 08:10:28 51°17.59 2°52.046 333.7 11.5 326 9.4
2008-10-31 08:10:32 51°17.601 2°52.035 333.8 11.5 327 9.4
2008-10-31 08:10:38 51°17.617 2°52.018 334.5 11.6 327 9.6
2008-10-31 08:10:43 51°17.63 2°52.005 334.4 11.4 328 9.6
2008-10-31 08:10:48 51°17.644 2°51.992 335.5 11.5 329 9.6
2008-10-31 08:10:52 51°17.655 2°51.981 336 11.5 328 9.2
2008-10-31 08:10:58 51°17.671 2°51.966 336.6 11.4 331 9.4
2008-10-31 08:11:03 51°17.685 2°51.954 337.6 11.4 330 9.2
2008-10-31 08:11:08 51°17.699 2°51.942 338 11.4 331 9.2
2008-10-31 08:11:13 51°17.712 2°51.929 338.5 11.4 330 9.4
2008-10-31 08:11:18 51°17.726 2°51.916 337.6 11.5 329 9.3
2008-10-31 08:11:23 51°17.74 2°51.903 337.3 11.4 329 9.3
2008-10-31 08:11:28 51°17.753 2°51.89 336.5 11.4 328 9.3
2008-10-31 08:11:32 51°17.764 2°51.879 335.7 11.5 327 9.3
2008-10-31 08:11:38 51°17.78 2°51.862 335.2 11.5 328 9.2
2008-10-31 08:11:43 51°17.793 2°51.848 334.9 11.6 326 9.2
2008-10-31 08:11:48 51°17.807 2°51.834 334.7 11.5 328 9.3
2008-10-31 08:11:52 51°17.817 2°51.823 334.9 11.5 327 9.3
2008-10-31 08:11:58 51°17.833 2°51.807 334.8 11.5 327 9
2008-10-31 08:12:03 51°17.846 2°51.792 334.7 11.5 326 9.3
2008-10-31 08:12:08 51°17.86 2°51.779 334.4 11.6 327 9.3
2008-10-31 08:12:12 51°17.871 2°51.767 334.5 11.6 327 9.2
2008-10-31 08:12:18 51°17.887 2°51.751 335 11.6 327 9.3
2008-10-31 08:12:23 51°17.901 2°51.737 334.8 11.6 328 9.3
2008-10-31 08:12:28 51°17.914 2°51.723 335.5 11.6 328 9.4
2008-10-31 08:12:32 51°17.925 2°51.712 335.6 11.6 326 9.2
2008-10-31 08:12:38 51°17.941 2°51.695 335 11.6 328 9.4
2008-10-31 08:12:43 51°17.954 2°51.681 335 11.6 327 9.5
2008-10-31 08:12:48 51°17.968 2°51.667 335.1 11.6 327 9.5
2008-10-31 08:12:52 51°17.978 2°51.656 334.8 11.6 327 9.7
2008-10-31 08:12:58 51°17.995 2°51.639 335.2 11.6 327 9.7
2008-10-31 08:13:03 51°18.008 2°51.626 335.2 11.6 328 9.8
2008-10-31 08:13:08 51°18.022 2°51.612 335.2 11.6 327 9.8
2008-10-31 08:13:12 51°18.033 2°51.6 334.9 11.6 327 9.9
2008-10-31 08:13:18 51°18.049 2°51.583 334.9 11.7 327 10.1
2008-10-31 08:13:23 51°18.063 2°51.57 335.1 11.6 328 10.1
2008-10-31 08:13:28 51°18.076 2°51.556 335 11.7 327 10.2
2008-10-31 08:13:32 51°18.087 2°51.545 335.2 11.6 328 10.3
2008-10-31 08:13:38 51°18.103 2°51.528 335.5 11.6 328 10.3
2008-10-31 08:13:43 51°18.117 2°51.514 334.9 11.6 327 10.5
2008-10-31 08:13:48 51°18.13 2°51.5 335.2 11.6 328 10.5
2008-10-31 08:13:52 51°18.141 2°51.489 335.3 11.6 328 10.5
2008-10-31 08:13:58 51°18.157 2°51.472 335.2 11.7 327 10.6
2008-10-31 08:14:03 51°18.171 2°51.458 334.9 11.7 327 10.7
2008-10-31 08:14:08 51°18.184 2°51.444 334.9 11.7 327 10.8
2008-10-31 08:14:12 51°18.195 2°51.433 334.6 11.7 327 10.9
2008-10-31 08:14:18 51°18.212 2°51.417 335 11.6 328 10.8
2008-10-31 08:14:23 51°18.225 2°51.402 335.5 11.8 325 11.1
2008-10-31 08:14:28 51°18.239 2°51.387 334.6 11.7 326 11.3
2008-10-31 08:14:32 51°18.25 2°51.376 335.2 11.7 328 11.1
2008-10-31 08:14:38 51°18.266 2°51.359 335.3 11.7 327 11.4
2008-10-31 08:14:43 51°18.28 2°51.346 336 11.7 329 11.5
2008-10-31 08:14:48 51°18.294 2°51.332 336 11.7 327 11.5
2008-10-31 08:14:52 51°18.305 2°51.32 335.5 11.8 327 11.6
2008-10-31 08:14:58 51°18.321 2°51.303 335.6 11.8 327 11.7
2008-10-31 08:15:03 51°18.335 2°51.289 335.5 11.8 327 11.9
2008-10-31 08:15:08 51°18.349 2°51.274 335.6 11.8 326 11.8
2008-10-31 08:15:12 51°18.36 2°51.263 335.2 11.9 326 12.1
2008-10-31 08:15:18 51°18.376 2°51.245 335.3 11.7 326 12
2008-10-31 08:15:23 51°18.389 2°51.23 335.7 11.8 326 12.3
2008-10-31 08:15:28 51°18.403 2°51.216 335.8 11.7 327 12
2008-10-31 08:15:32 51°18.414 2°51.205 336.1 11.8 326 12.4
2008-10-31 08:15:38 51°18.43 2°51.187 335.8 11.8 326 12.4
2008-10-31 08:15:43 51°18.444 2°51.173 336.1 11.8 326 12.4
2008-10-31 08:15:48 51°18.457 2°51.158 336.2 11.8 326 12.5
2008-10-31 08:15:52 51°18.468 2°51.146 336 11.7 326 12.7
2008-10-31 08:15:58 51°18.485 2°51.129 336.3 11.8 326 12.8
2008-10-31 08:16:03 51°18.498 2°51.115 336.5 11.7 327 12.7
2008-10-31 08:16:08 51°18.512 2°51.1 336.3 11.8 326 13
2008-10-31 08:16:12 51°18.523 2°51.089 336.5 11.7 326 12.9
2008-10-31 08:16:18 51°18.539 2°51.071 336.8 11.7 326 12.8
2008-10-31 08:16:23 51°18.552 2°51.057 336.4 11.7 326 13
2008-10-31 08:16:28 51°18.566 2°51.042 336.4 11.7 326 12.9
2008-10-31 08:16:32 51°18.576 2°51.03 336.3 11.7 325 13.1
2008-10-31 08:16:38 51°18.593 2°51.013 336.6 11.7 327 12.9
2008-10-31 08:16:43 51°18.606 2°50.998 336.1 11.8 325 13.2
2008-10-31 08:16:48 51°18.62 2°50.984 336 11.8 326 13.2
2008-10-31 08:16:52 51°18.631 2°50.973 336.7 11.8 327 13.2
2008-10-31 08:16:58 51°18.647 2°50.955 336 11.8 326 13.3
2008-10-31 08:17:03 51°18.661 2°50.941 336.3 11.8 327 13.4
2008-10-31 08:17:08 51°18.675 2°50.927 336.7 11.8 327 13.4
2008-10-31 08:17:12 51°18.686 2°50.916 336.8 11.8 328 13.6
2008-10-31 08:17:18 51°18.702 2°50.899 336.8 11.8 327 13.4
2008-10-31 08:17:23 51°18.715 2°50.884 336.4 11.8 325 13.6
2008-10-31 08:17:28 51°18.729 2°50.869 336.3 11.7 326 13.4
2008-10-31 08:17:32 51°18.74 2°50.858 336 11.7 326 13.6
2008-10-31 08:17:38 51°18.756 2°50.841 336.4 11.7 327 13.8
2008-10-31 08:17:43 51°18.77 2°50.826 337.4 11.7 327 13.6
2008-10-31 08:17:48 51°18.784 2°50.812 336.9 11.8 326 13.7
2008-10-31 08:17:52 51°18.795 2°50.8 336.4 11.8 326 13.8
2008-10-31 08:17:58 51°18.81 2°50.782 336.4 11.8 325 13.6
2008-10-31 08:18:03 51°18.824 2°50.768 335.4 11.7 326 13.8
2008-10-31 08:18:08 51°18.838 2°50.753 336 11.8 325 13.9
2008-10-31 08:18:12 51°18.849 2°50.741 336.2 11.8 326 13.9
2008-10-31 08:18:18 51°18.865 2°50.723 336.5 11.8 326 13.7
2008-10-31 08:18:23 51°18.878 2°50.709 337.1 11.7 327 13.8
2008-10-31 08:18:28 51°18.892 2°50.695 337.4 11.8 327 14
2008-10-31 08:18:32 51°18.903 2°50.684 337.7 11.7 327 13.6
2008-10-31 08:18:38 51°18.919 2°50.667 337.3 11.7 327 13.8
2008-10-31 08:18:43 51°18.933 2°50.653 338.1 11.7 328 13.6
2008-10-31 08:18:48 51°18.947 2°50.639 338.4 11.7 328 13.7
2008-10-31 08:18:52 51°18.958 2°50.628 337.9 11.7 327 13.7
2008-10-31 08:18:58 51°18.974 2°50.611 337.5 11.8 327 13.6
2008-10-31 08:19:03 51°18.987 2°50.596 336.9 11.8 326 13.3
2008-10-31 08:19:08 51°19.001 2°50.581 336.2 11.8 325 13.5
2008-10-31 08:19:12 51°19.012 2°50.57 336 11.8 326 13.5
2008-10-31 08:19:18 51°19.028 2°50.552 336.2 11.9 326 13.5
2008-10-31 08:19:23 51°19.042 2°50.537 336 11.8 326 13.3
2008-10-31 08:19:28 51°19.055 2°50.522 336 11.8 325 13
2008-10-31 08:19:32 51°19.066 2°50.511 336 11.8 326 13
2008-10-31 08:19:38 51°19.082 2°50.493 336.1 11.9 325 12.9
2008-10-31 08:19:43 51°19.096 2°50.479 336.2 11.7 327 12.8
2008-10-31 08:19:48 51°19.109 2°50.464 336.2 11.7 326 12.1
2008-10-31 08:19:52 51°19.12 2°50.452 335.9 11.7 326 12.5
2008-10-31 08:19:58 51°19.136 2°50.435 335.9 11.7 327 12.2
2008-10-31 08:20:03 51°19.15 2°50.42 336.6 11.7 326 12.2
2008-10-31 08:20:08 51°19.163 2°50.406 336.2 11.7 327 12.1
2008-10-31 08:20:12 51°19.175 2°50.395 336.7 11.7 327 12
2008-10-31 08:20:18 51°19.191 2°50.379 337.1 11.7 329 12
2008-10-31 08:20:23 51°19.205 2°50.365 337.8 11.7 329 12
2008-10-31 08:20:28 51°19.219 2°50.352 338.1 11.7 330 11.8
2008-10-31 08:20:32 51°19.23 2°50.342 339.3 11.7 330 11.7
2008-10-31 08:20:38 51°19.247 2°50.326 339.2 11.6 330 11.4
2008-10-31 08:20:43 51°19.261 2°50.313 338.9 11.7 329 11.4
2008-10-31 08:20:48 51°19.275 2°50.3 338.4 11.7 329 11.5
2008-10-31 08:20:52 51°19.286 2°50.29 338 11.6 330 11.3
2008-10-31 08:20:58 51°19.303 2°50.273 337.4 11.7 328 11.5
2008-10-31 08:21:03 51°19.316 2°50.259 336.9 11.7 328 11.2
2008-10-31 08:21:08 51°19.33 2°50.246 336.3 11.7 328 11.2
2008-10-31 08:21:12 51°19.341 2°50.235 336.2 11.7 328 10.9
2008-10-31 08:21:18 51°19.358 2°50.218 336.1 11.8 328 10.9
2008-10-31 08:21:23 51°19.371 2°50.204 335.8 11.8 327 11
2008-10-31 08:21:28 51°19.385 2°50.19 335.2 11.7 327 10.8
2008-10-31 08:21:32 51°19.396 2°50.179 335.8 11.7 329 10.9
2008-10-31 08:21:38 51°19.413 2°50.163 336.1 11.8 329 10.9
2008-10-31 08:21:43 51°19.427 2°50.149 337 11.8 330 10.6
2008-10-31 08:21:48 51°19.44 2°50.135 336.6 11.8 328 10.5
2008-10-31 08:21:52 51°19.451 2°50.124 336 11.8 327 10.6
2008-10-31 08:21:58 51°19.468 2°50.108 335.7 11.8 329 10.6
2008-10-31 08:22:03 51°19.482 2°50.093 335.4 11.8 327 10.6
2008-10-31 08:22:08 51°19.496 2°50.08 335.4 11.8 328 10.8
2008-10-31 08:22:12 51°19.507 2°50.068 335.4 11.9 328 11
2008-10-31 08:22:18 51°19.523 2°50.052 335.4 11.9 328 11.6
2008-10-31 08:22:23 51°19.537 2°50.037 335.2 11.9 328 12
2008-10-31 08:22:28 51°19.551 2°50.023 335.1 11.9 327 12.3
2008-10-31 08:22:32 51°19.562 2°50.012 334.5 11.9 327 12.4
2008-10-31 08:22:38 51°19.579 2°49.994 334.5 11.9 327 12.8
2008-10-31 08:22:43 51°19.593 2°49.979 334.6 12 327 12.9
2008-10-31 08:22:48 51°19.606 2°49.965 335 11.9 328 13.2
2008-10-31 08:22:52 51°19.618 2°49.954 335.4 12 327 13.5
2008-10-31 08:22:58 51°19.634 2°49.937 335.7 12 327 13.4
2008-10-31 08:23:03 51°19.648 2°49.922 335.7 11.8 327 13.3
2008-10-31 08:23:08 51°19.662 2°49.909 336 11.7 328 13.3
2008-10-31 08:23:12 51°19.672 2°49.897 336.4 11.7 327 13.6
2008-10-31 08:23:18 51°19.689 2°49.88 336 11.8 328 13.8
2008-10-31 08:23:23 51°19.703 2°49.866 335.8 11.9 329 13.8
2008-10-31 08:23:28 51°19.717 2°49.853 336.7 11.8 330 14
2008-10-31 08:23:32 51°19.728 2°49.842 337.3 11.7 329 13.8
2008-10-31 08:23:38 51°19.746 2°49.827 338.1 11.7 331 14
2008-10-31 08:23:43 51°19.76 2°49.814 338.1 11.8 329 14
2008-10-31 08:23:48 51°19.774 2°49.801 338.1 11.8 330 14.1
2008-10-31 08:23:52 51°19.785 2°49.791 338.3 11.8 330 14.4
2008-10-31 08:23:58 51°19.803 2°49.775 338.3 11.8 330 14.3
2008-10-31 08:24:03 51°19.817 2°49.762 338.5 11.9 330 14.8
2008-10-31 08:24:08 51°19.831 2°49.748 338.5 11.8 329 14.8
2008-10-31 08:24:12 51°19.843 2°49.738 338.2 11.8 330 15.2
2008-10-31 08:24:18 51°19.86 2°49.722 338.1 11.9 329 15.3
2008-10-31 08:24:23 51°19.874 2°49.708 337.9 11.9 330 15.5
2008-10-31 08:24:28 51°19.888 2°49.695 338.1 11.9 329 15.8
2008-10-31 08:24:32 51°19.899 2°49.684 337.6 11.8 328 15.9
2008-10-31 08:24:38 51°19.916 2°49.666 337.1 12 327 16.4
2008-10-31 08:24:43 51°19.93 2°49.652 336.2 12.1 327 16.5
2008-10-31 08:24:48 51°19.944 2°49.637 335.6 12.1 326 16.5
2008-10-31 08:24:52 51°19.955 2°49.626 335.7 12 327 16.9
2008-10-31 08:24:58 51°19.971 2°49.607 335.2 12 325 17
2008-10-31 08:25:03 51°19.985 2°49.593 334.7 11.9 326 17
2008-10-31 08:25:08 51°19.999 2°49.577 334.7 12.1 325 17.5
2008-10-31 08:25:12 51°20.01 2°49.565 334.1 12 325 17.6
2008-10-31 08:25:18 51°20.026 2°49.546 333.6 12.1 324 17.7
2008-10-31 08:25:23 51°20.04 2°49.531 333.5 12 324 17.8
2008-10-31 08:25:28 51°20.053 2°49.515 333 12.1 323 18
2008-10-31 08:25:32 51°20.064 2°49.502 332.5 12.1 323 18.4
2008-10-31 08:25:38 51°20.08 2°49.483 332.3 12.1 324 18.6
2008-10-31 08:25:43 51°20.094 2°49.467 332.4 12.1 322 18.7
2008-10-31 08:25:48 51°20.107 2°49.451 332.1 12.1 324 19
2008-10-31 08:25:52 51°20.118 2°49.438 332.4 12.1 323 19.3
2008-10-31 08:25:58 51°20.134 2°49.419 332.6 12.1 324 19.4
2008-10-31 08:26:03 51°20.148 2°49.403 332.9 12 323 19.6
2008-10-31 08:26:08 51°20.162 2°49.388 333.1 12 324 20
2008-10-31 08:26:12 51°20.173 2°49.376 333.8 12.1 325 20.1
2008-10-31 08:26:18 51°20.189 2°49.357 334.5 11.9 325 20
2008-10-31 08:26:23 51°20.203 2°49.341 334.4 12.1 324 20.5
2008-10-31 08:26:28 51°20.216 2°49.326 334.1 12 325 20.5
2008-10-31 08:26:32 51°20.227 2°49.314 335 12 326 21
2008-10-31 08:26:38 51°20.244 2°49.296 335.3 12 325 20.8
2008-10-31 08:26:43 51°20.258 2°49.281 335.1 12.1 326 21.1
2008-10-31 08:26:48 51°20.271 2°49.266 335.4 12.1 326 21.3
2008-10-31 08:26:52 51°20.282 2°49.254 335.9 12 325 21.2
2008-10-31 08:26:58 51°20.299 2°49.235 335.2 12 324 21.7
2008-10-31 08:27:03 51°20.312 2°49.219 334.7 12 325 21.6
2008-10-31 08:27:08 51°20.326 2°49.203 334.5 12.1 323 21.5
2008-10-31 08:27:12 51°20.337 2°49.191 333.8 12.1 324 21.7
2008-10-31 08:27:18 51°20.353 2°49.171 333.7 12.2 323 21.9
2008-10-31 08:27:23 51°20.366 2°49.155 333 12.2 324 21.9
2008-10-31 08:27:28 51°20.38 2°49.139 333.7 12.1 324 21.6
2008-10-31 08:27:32 51°20.391 2°49.126 334.1 12.2 323 21.8
2008-10-31 08:27:38 51°20.407 2°49.107 333.7 12.2 323 21.6
2008-10-31 08:27:43 51°20.421 2°49.091 333.6 12.2 324 21.6
2008-10-31 08:27:48 51°20.435 2°49.075 334.2 12.2 324 21.9
2008-10-31 08:27:52 51°20.445 2°49.062 333.9 12.2 323 21.9
2008-10-31 08:27:58 51°20.462 2°49.043 334 12.1 324 22
2008-10-31 08:28:03 51°20.476 2°49.028 334.6 12.2 325 21.9
2008-10-31 08:28:08 51°20.49 2°49.012 335 12.2 324 21.8
2008-10-31 08:28:12 51°20.501 2°48.999 335 12.2 324 21.9
2008-10-31 08:28:18 51°20.517 2°48.981 334.8 12.1 325 21.7
2008-10-31 08:28:23 51°20.531 2°48.965 335.2 12.1 325 21.9
2008-10-31 08:28:28 51°20.545 2°48.949 335.2 12.3 325 21.8
2008-10-31 08:28:32 51°20.556 2°48.936 334.2 12.2 324 21.8
2008-10-31 08:28:38 51°20.573 2°48.917 334.3 12.2 324 22
2008-10-31 08:28:43 51°20.587 2°48.901 334.7 12.3 324 21.7
2008-10-31 08:28:48 51°20.6 2°48.886 334.5 12.1 324 21.7
2008-10-31 08:28:52 51°20.611 2°48.873 334.4 12.1 323 21.8
2008-10-31 08:28:58 51°20.628 2°48.854 334.4 12.1 325 21.8
2008-10-31 08:29:03 51°20.641 2°48.838 334.5 12.2 324 21.7
2008-10-31 08:29:08 51°20.655 2°48.823 334.5 12.2 325 21.8
2008-10-31 08:29:12 51°20.666 2°48.81 334.2 12.2 324 21.7
2008-10-31 08:29:18 51°20.682 2°48.791 334.1 12.2 324 21.6
2008-10-31 08:29:23 51°20.696 2°48.775 333.4 12.2 323 21.4
2008-10-31 08:29:28 51°20.71 2°48.759 333.5 12.2 325 21.5
2008-10-31 08:29:32 51°20.721 2°48.747 334.5 12.2 325 21.5
2008-10-31 08:29:38 51°20.738 2°48.728 334.8 12.3 325 21.5
2008-10-31 08:29:43 51°20.751 2°48.712 334.2 12.1 324 21.1
2008-10-31 08:29:48 51°20.765 2°48.696 334 12.1 324 21.1
2008-10-31 08:29:52 51°20.776 2°48.684 334.2 12.1 325 21
2008-10-31 08:29:58 51°20.792 2°48.666 334.6 12 325 20.7
2008-10-31 08:30:03 51°20.806 2°48.65 335 12.2 325 20.7
2008-10-31 08:30:08 51°20.82 2°48.634 334.5 12.3 324 20.9
2008-10-31 08:30:12 51°20.831 2°48.622 334 12.2 324 20.6
2008-10-31 08:30:18 51°20.847 2°48.603 334.2 12.2 324 20.3
2008-10-31 08:30:23 51°20.861 2°48.587 333.8 12.2 325 20.3
2008-10-31 08:30:28 51°20.875 2°48.571 333.8 12.3 325 20.3
2008-10-31 08:30:32 51°20.886 2°48.558 334 12.3 324 20.1
2008-10-31 08:30:38 51°20.902 2°48.539 334 12.3 324 20.1
2008-10-31 08:30:43 51°20.916 2°48.524 334.2 12.3 326 20.1
2008-10-31 08:30:48 51°20.931 2°48.509 335.3 12.3 327 20.1
2008-10-31 08:30:52 51°20.942 2°48.498 336.1 12.2 327 20
2008-10-31 08:30:58 51°20.959 2°48.48 336.1 12.1 326 19.6
2008-10-31 08:31:03 51°20.973 2°48.465 335.4 12.1 327 19.3
2008-10-31 08:31:08 51°20.987 2°48.449 335.5 12.2 326 19.3
2008-10-31 08:31:12 51°20.998 2°48.437 334.9 12.2 325 19.4
2008-10-31 08:31:18 51°21.015 2°48.419 334.9 12.1 326 19.3
2008-10-31 08:31:23 51°21.029 2°48.403 334.6 12.3 324 19.4
2008-10-31 08:31:28 51°21.043 2°48.387 334 12.2 325 19.5
2008-10-31 08:31:32 51°21.054 2°48.375 333.8 12.2 325 19.5
2008-10-31 08:31:38 51°21.07 2°48.356 334.4 12.1 325 19.5
2008-10-31 08:31:43 51°21.084 2°48.34 334.1 12.3 324 19.5
2008-10-31 08:31:48 51°21.098 2°48.325 334.3 12.2 326 19.6
2008-10-31 08:31:53 51°21.112 2°48.31 334.2 12.2 325 19.4
2008-10-31 08:31:58 51°21.126 2°48.295 334.7 12.2 327 19.9
2008-10-31 08:32:03 51°21.14 2°48.279 335 12.1 323 19.6
2008-10-31 08:32:08 51°21.154 2°48.264 334.3 12 326 19.4
2008-10-31 08:32:13 51°21.167 2°48.247 334.2 12.2 324 19.4
2008-10-31 08:32:18 51°21.181 2°48.233 334.5 12.1 326 19.2
2008-10-31 08:32:23 51°21.195 2°48.217 335.1 12.2 325 19.6
2008-10-31 08:32:28 51°21.209 2°48.203 335.5 12.2 327 20.2
2008-10-31 08:32:32 51°21.22 2°48.19 335.3 12.2 326 20.4
2008-10-31 08:32:38 51°21.237 2°48.173 335.3 12.1 327 20.5
2008-10-31 08:32:43 51°21.25 2°48.157 335.4 12.1 326 20.7
2008-10-31 08:32:48 51°21.264 2°48.143 335.2 12.1 326 20.9
2008-10-31 08:32:52 51°21.276 2°48.13 334.9 12.2 325 21
2008-10-31 08:32:58 51°21.292 2°48.112 335 12.1 326 21.1
2008-10-31 08:33:03 51°21.306 2°48.097 334.9 12.2 325 21.4
2008-10-31 08:33:08 51°21.32 2°48.082 335 12.1 326 21.3
2008-10-31 08:33:12 51°21.331 2°48.069 334.5 12.2 325 21.6
2008-10-31 08:33:18 51°21.348 2°48.051 334.5 12.1 326 21.8
2008-10-31 08:33:23 51°21.362 2°48.035 334.5 12.2 324 21.6
2008-10-31 08:33:28 51°21.377 2°48.021 335.1 12.2 327 21.4
2008-10-31 08:33:32 51°21.388 2°48.008 335.4 12.2 325 21.8
2008-10-31 08:33:38 51°21.405 2°47.99 335.2 12.2 326 21.8
2008-10-31 08:33:43 51°21.418 2°47.975 335.1 12.1 326 21.3
2008-10-31 08:33:48 51°21.432 2°47.96 335.4 12.1 327 21.2
2008-10-31 08:33:53 51°21.446 2°47.945 335.4 12.2 326 21.5
2008-10-31 08:33:58 51°21.46 2°47.93 335.2 12.2 325 22.2
2008-10-31 08:34:03 51°21.474 2°47.914 334.7 12.2 325 21.6
2008-10-31 08:34:08 51°21.488 2°47.899 334.2 12.3 325 22.5
2008-10-31 08:34:13 51°21.502 2°47.883 334.3 12.3 325 22.4
2008-10-31 08:34:18 51°21.516 2°47.868 334.5 12.2 325 22.2
2008-10-31 08:34:23 51°21.53 2°47.853 335.1 12.3 326 22.1
2008-10-31 08:34:28 51°21.544 2°47.837 334.8 12.3 325 21.4
2008-10-31 08:34:32 51°21.555 2°47.825 334.6 12.3 325 21.9
2008-10-31 08:34:38 51°21.572 2°47.806 334.7 12.2 325 21.6
2008-10-31 08:34:43 51°21.586 2°47.791 334.6 12.3 325 21.9
2008-10-31 08:34:48 51°21.6 2°47.776 335.4 12.1 327 22.1
2008-10-31 08:34:52 51°21.612 2°47.764 336.6 12.1 327 22.4
2008-10-31 08:34:58 51°21.628 2°47.746 335.6 12.2 327 23.1
2008-10-31 08:35:03 51°21.642 2°47.732 336.3 12.2 328 23.3
2008-10-31 08:35:08 51°21.656 2°47.717 336.4 12.1 326 23.2
2008-10-31 08:35:12 51°21.668 2°47.706 335.9 12.1 328 23.5
2008-10-31 08:35:18 51°21.684 2°47.688 335.6 12.1 326 23.4
2008-10-31 08:35:23 51°21.699 2°47.674 335.9 12.1 329 23.3
2008-10-31 08:35:28 51°21.713 2°47.661 336.6 12 329 23.3
2008-10-31 08:35:32 51°21.725 2°47.649 336.7 12 328 23
2008-10-31 08:35:38 51°21.742 2°47.633 336.6 12.1 329 23.6
2008-10-31 08:35:43 51°21.756 2°47.619 336.9 12.1 329 23.5
2008-10-31 08:35:48 51°21.77 2°47.605 336.7 12 329 23.8
2008-10-31 08:35:52 51°21.782 2°47.594 337.3 12.1 329 23.4
2008-10-31 08:35:58 51°21.799 2°47.577 337.2 12.1 329 23.5
2008-10-31 08:36:03 51°21.813 2°47.564 336.8 12.1 330 23.2
2008-10-31 08:36:08 51°21.828 2°47.551 338.3 12 331 23.1
2008-10-31 08:36:12 51°21.839 2°47.541 339.1 11.9 331 22.7
2008-10-31 08:36:18 51°21.856 2°47.526 338.9 11.9 332 22.6
2008-10-31 08:36:23 51°21.871 2°47.514 339.7 11.9 332 23.1
2008-10-31 08:36:28 51°21.886 2°47.503 341 11.8 335 23.2
2008-10-31 08:36:32 51°21.897 2°47.493 340.9 11.8 333 23
2008-10-31 08:36:38 51°21.915 2°47.48 340.6 11.8 335 23.3
2008-10-31 08:36:43 51°21.93 2°47.468 341.7 11.8 335 23
2008-10-31 08:36:48 51°21.945 2°47.457 341.6 11.8 335 23.4
2008-10-31 08:36:52 51°21.956 2°47.448 341.6 11.9 334 23.1
2008-10-31 08:36:58 51°21.974 2°47.435 341.5 11.9 335 23.6
2008-10-31 08:37:03 51°21.989 2°47.424 341.7 11.8 335 23.4
2008-10-31 08:37:08 51°22.003 2°47.413 341.9 11.8 335 23.5
2008-10-31 08:37:12 51°22.015 2°47.404 341.7 11.8 334 23.4
2008-10-31 08:37:18 51°22.032 2°47.39 341.1 11.7 334 23.2
2008-10-31 08:37:23 51°22.047 2°47.379 341 11.8 334 23.2
2008-10-31 08:37:28 51°22.062 2°47.367 340.3 11.8 333 23
2008-10-31 08:37:32 51°22.074 2°47.359 341 11.7 336 22.8
2008-10-31 08:37:38 51°22.091 2°47.345 341.6 11.8 334 22.7
2008-10-31 08:37:43 51°22.106 2°47.335 342 11.7 336 22.7
2008-10-31 08:37:48 51°22.121 2°47.324 342.7 11.7 336 22.3
2008-10-31 08:37:52 51°22.133 2°47.315 343 11.6 336 21.9
2008-10-31 08:37:58 51°22.15 2°47.303 342.7 11.6 335 22.3
2008-10-31 08:38:03 51°22.165 2°47.292 342.5 11.7 335 21.9
2008-10-31 08:38:08 51°22.18 2°47.281 341.9 11.6 335 21.5
2008-10-31 08:38:12 51°22.191 2°47.272 342 11.6 335 21.2
2008-10-31 08:38:18 51°22.209 2°47.261 342.3 11.6 338 20.8
2008-10-31 08:38:23 51°22.224 2°47.25 342.8 11.6 335 19.9
2008-10-31 08:38:28 51°22.238 2°47.239 342.4 11.6 335 18.9
2008-10-31 08:38:32 51°22.25 2°47.231 343.1 11.5 337 18.9
2008-10-31 08:38:38 51°22.267 2°47.218 342.6 11.5 335 17.9
2008-10-31 08:38:43 51°22.281 2°47.207 342.3 11.5 334 17.3
2008-10-31 08:38:48 51°22.296 2°47.196 341.7 11.4 334 18.5
2008-10-31 08:38:52 51°22.307 2°47.186 340.8 11.5 333 18.6
2008-10-31 08:38:58 51°22.324 2°47.173 341.2 11.4 334 18.4
2008-10-31 08:39:03 51°22.338 2°47.162 341 11.4 333 18.3
2008-10-31 08:39:08 51°22.353 2°47.151 341.8 11.4 335 18.2
2008-10-31 08:39:12 51°22.364 2°47.142 342.4 11.4 334 18
2008-10-31 08:39:18 51°22.381 2°47.13 342.5 11.4 336 18.3
2008-10-31 08:39:23 51°22.395 2°47.119 343 11.4 336 18
2008-10-31 08:39:28 51°22.41 2°47.109 343.1 11.4 337 18
2008-10-31 08:39:32 51°22.422 2°47.1 343.3 11.4 334 17.9
2008-10-31 08:39:38 51°22.439 2°47.088 342.8 11.4 337 18.2
2008-10-31 08:39:43 51°22.453 2°47.077 342.6 11.5 334 18.2
2008-10-31 08:39:48 51°22.468 2°47.067 342.3 11.4 337 17.9
2008-10-31 08:39:52 51°22.48 2°47.059 343 11.4 335 17.6
2008-10-31 08:39:58 51°22.497 2°47.046 342.1 11.5 334 17.8
2008-10-31 08:40:03 51°22.511 2°47.034 342.3 11.5 335 17.8
2008-10-31 08:40:08 51°22.526 2°47.023 341.9 11.5 333 17.7
2008-10-31 08:40:12 51°22.537 2°47.015 341.7 11.5 335 17.9
2008-10-31 08:40:18 51°22.555 2°47.002 341.8 11.4 335 17.9
2008-10-31 08:40:23 51°22.569 2°46.991 342.6 11.4 335 18.1
2008-10-31 08:40:28 51°22.583 2°46.98 342.2 11.5 335 18.2
2008-10-31 08:40:32 51°22.595 2°46.972 342.8 11.4 337 18.1
2008-10-31 08:40:38 51°22.612 2°46.959 343.4 11.5 335 18.3
2008-10-31 08:40:43 51°22.626 2°46.948 342.3 11.5 334 18.2
2008-10-31 08:40:48 51°22.641 2°46.937 342 11.5 335 18.2
2008-10-31 08:40:52 51°22.652 2°46.928 341.9 11.4 333 18.1
2008-10-31 08:40:58 51°22.669 2°46.914 342.1 11.4 334 18
2008-10-31 08:41:03 51°22.683 2°46.903 341.4 11.4 333 18.2
2008-10-31 08:41:08 51°22.698 2°46.892 341.8 11.4 333 18.1
2008-10-31 08:41:12 51°22.709 2°46.883 341.7 11.5 334 18.3
2008-10-31 08:41:18 51°22.726 2°46.869 341.6 11.5 334 18.2
2008-10-31 08:41:23 51°22.741 2°46.859 342.9 11.4 336 18.6
2008-10-31 08:41:28 51°22.755 2°46.848 343.1 11.5 334 18.6
2008-10-31 08:41:32 51°22.767 2°46.84 342.8 11.4 336 19.2
2008-10-31 08:41:38 51°22.784 2°46.827 343 11.4 335 19.1
2008-10-31 08:41:43 51°22.798 2°46.816 342.6 11.4 334 19.5
2008-10-31 08:41:48 51°22.812 2°46.804 342.3 11.5 333 19.9
2008-10-31 08:41:52 51°22.824 2°46.796 342 11.5 336 19.9
2008-10-31 08:41:58 51°22.841 2°46.782 341.9 11.5 333 20.4
2008-10-31 08:42:03 51°22.855 2°46.771 341.4 11.5 334 20.8
2008-10-31 08:42:08 51°22.87 2°46.76 341.6 11.5 334 20.8
2008-10-31 08:42:12 51°22.881 2°46.751 341.8 11.5 334 20.4
2008-10-31 08:42:18 51°22.898 2°46.737 341.8 11.5 335 21.2
2008-10-31 08:42:23 51°22.913 2°46.727 343 11.5 335 21.5
2008-10-31 08:42:28 51°22.927 2°46.715 342.5 11.6 333 21.6
2008-10-31 08:42:32 51°22.939 2°46.707 342 11.5 336 21.5
2008-10-31 08:42:38 51°22.956 2°46.694 342.8 11.5 335 22.1
2008-10-31 08:42:43 51°22.971 2°46.683 342.9 11.6 335 21.9
2008-10-31 08:42:48 51°22.986 2°46.672 342.5 11.6 335 21.9
2008-10-31 08:42:52 51°22.997 2°46.663 342.3 11.6 335 22.4
2008-10-31 08:42:58 51°23.015 2°46.65 341.9 11.6 334 22.4
2008-10-31 08:43:03 51°23.029 2°46.639 341.5 11.6 334 22.7
2008-10-31 08:43:08 51°23.044 2°46.628 341.1 11.7 335 23.1
2008-10-31 08:43:12 51°23.055 2°46.619 341.4 11.6 335 22.9
2008-10-31 08:43:18 51°23.073 2°46.606 342.3 11.5 335 23.3
2008-10-31 08:43:23 51°23.087 2°46.595 342.5 11.5 335 23.3
2008-10-31 08:43:28 51°23.102 2°46.585 342.6 11.5 336 23.6
2008-10-31 08:43:32 51°23.114 2°46.577 343.1 11.5 336 23.7
2008-10-31 08:43:38 51°23.131 2°46.564 343.8 11.5 337 23.6
2008-10-31 08:43:43 51°23.146 2°46.553 343.2 11.5 335 23.6
2008-10-31 08:43:48 51°23.16 2°46.543 342.9 11.5 335 24.1
2008-10-31 08:43:53 51°23.175 2°46.532 342.8 11.5 335 24
2008-10-31 08:43:58 51°23.189 2°46.521 342.5 11.5 335 24.4
2008-10-31 08:44:03 51°23.204 2°46.51 341.9 11.5 334 24.4
2008-10-31 08:44:08 51°23.218 2°46.498 341.9 11.5 334 24.2
2008-10-31 08:44:12 51°23.23 2°46.49 341.8 11.4 334 24.3
2008-10-31 08:44:18 51°23.247 2°46.476 340.7 11.4 333 24.6
2008-10-31 08:44:23 51°23.261 2°46.465 342 11.4 335 24.2
2008-10-31 08:44:28 51°23.276 2°46.453 341.4 11.5 332 23.1
2008-10-31 08:44:32 51°23.287 2°46.445 341.9 11.5 335 21.9
2008-10-31 08:44:38 51°23.305 2°46.431 341.7 11.6 333 21.8
2008-10-31 08:44:43 51°23.319 2°46.42 341.8 11.6 333 21.8
2008-10-31 08:44:48 51°23.333 2°46.408 341 11.5 332 22.6
2008-10-31 08:44:53 51°23.347 2°46.397 340.9 11.5 333 22.3
2008-10-31 08:44:58 51°23.361 2°46.385 341.6 11.6 333 22.8
2008-10-31 08:45:03 51°23.376 2°46.373 341.6 11.5 333 23
2008-10-31 08:45:08 51°23.39 2°46.362 341.7 11.5 334 23.8
2008-10-31 08:45:12 51°23.402 2°46.353 342 11.6 334 24.6
2008-10-31 08:45:18 51°23.419 2°46.34 342.1 11.6 335 24.8
2008-10-31 08:45:23 51°23.433 2°46.329 342.8 11.6 334 24.8
2008-10-31 08:45:28 51°23.448 2°46.318 342.8 11.5 334 25.4
2008-10-31 08:45:32 51°23.46 2°46.31 342.9 11.5 335 25.5
2008-10-31 08:45:38 51°23.477 2°46.297 343.5 11.5 336 25.7
2008-10-31 08:45:43 51°23.491 2°46.287 343.8 11.5 336 25.6
2008-10-31 08:45:48 51°23.506 2°46.277 344 11.5 336 25.8
2008-10-31 08:45:52 51°23.518 2°46.269 344.6 11.5 337 25.2
2008-10-31 08:45:58 51°23.535 2°46.256 344.5 11.5 335 24.1
2008-10-31 08:46:03 51°23.55 2°46.245 343.6 11.5 336 25.9
2008-10-31 08:46:08 51°23.564 2°46.234 343.5 11.5 334 26.5
2008-10-31 08:46:12 51°23.575 2°46.225 342.6 11.5 334 26.4
2008-10-31 08:46:18 51°23.592 2°46.212 342.3 11.5 334 25
2008-10-31 08:46:23 51°23.607 2°46.201 342.1 11.6 334 26.3
2008-10-31 08:46:28 51°23.621 2°46.19 342.8 11.5 336 26.9
2008-10-31 08:46:32 51°23.633 2°46.182 343.8 11.5 335 26.8
2008-10-31 08:46:38 51°23.65 2°46.167 343.1 11.6 333 27.3
2008-10-31 08:46:43 51°23.664 2°46.157 342.5 11.5 335 27.5
2008-10-31 08:46:48 51°23.678 2°46.145 342.9 11.6 333 27.4
2008-10-31 08:46:52 51°23.69 2°46.136 342.4 11.6 334 27.5
2008-10-31 08:46:58 51°23.707 2°46.122 342.4 11.6 333 27.3
2008-10-31 08:47:03 51°23.722 2°46.111 341.6 11.5 334 27.4
2008-10-31 08:47:08 51°23.736 2°46.099 342.4 11.5 334 27.4
2008-10-31 08:47:12 51°23.748 2°46.09 342.6 11.6 332 27.6
2008-10-31 08:47:18 51°23.765 2°46.076 342 11.6 334 28.1
2008-10-31 08:47:23 51°23.779 2°46.064 342.5 11.6 333 27.5
2008-10-31 08:47:28 51°23.794 2°46.054 342.9 11.5 335 27.7
2008-10-31 08:47:32 51°23.805 2°46.045 343.2 11.5 334 28
2008-10-31 08:47:38 51°23.823 2°46.032 343.2 11.5 335 27.8
2008-10-31 08:47:43 51°23.837 2°46.02 342.6 11.7 333 27.4
2008-10-31 08:47:48 51°23.851 2°46.008 341.9 11.6 333 27.3
2008-10-31 08:47:52 51°23.863 2°45.998 341.1 11.7 331 27.1
2008-10-31 08:47:58 51°23.88 2°45.984 341.2 11.7 333 26.9
2008-10-31 08:48:03 51°23.895 2°45.971 341 11.8 332 26.6
2008-10-31 08:48:08 51°23.909 2°45.959 341.2 11.8 332 26.5
2008-10-31 08:48:12 51°23.92 2°45.95 341.3 11.7 332 26.6
2008-10-31 08:48:18 51°23.938 2°45.935 341.1 11.7 331 26.4
2008-10-31 08:48:23 51°23.952 2°45.925 342.4 11.3 337 26.4
2008-10-31 08:48:28 51°23.967 2°45.916 345.8 11.2 339 26.6
2008-10-31 08:48:32 51°23.978 2°45.91 349.3 11.2 343 26.5
2008-10-31 08:48:38 51°23.996 2°45.903 352.5 11.1 345 26.6
2008-10-31 08:48:43 51°24.011 2°45.897 354.6 11 348 26.1
2008-10-31 08:48:48 51°24.026 2°45.893 356.3 11.1 349 26.7
2008-10-31 08:48:52 51°24.038 2°45.891 0.3 10.7 354 26.9
2008-10-31 08:48:58 51°24.056 2°45.89 3.7 10.6 358 26.8
2008-10-31 08:49:03 51°24.07 2°45.89 6.4 10.6 -999 26.2
2008-10-31 08:49:08 51°24.084 2°45.894 10.5 10.4 7 26.2
2008-10-31 08:49:12 51°24.096 2°45.896 14.3 10.3 7 26.2
2008-10-31 08:49:18 51°24.112 2°45.902 16.7 10.1 13 26.4
2008-10-31 08:49:23 51°24.126 2°45.907 19.5 10.1 13 26.6
2008-10-31 08:49:28 51°24.139 2°45.914 21 10.1 16 26.7
2008-10-31 08:49:32 51°24.15 2°45.919 23.2 10.1 18 26.9
2008-10-31 08:49:38 51°24.166 2°45.928 24 10.2 19 26.6
2008-10-31 08:49:43 51°24.179 2°45.936 25.3 10.1 21 26.6
2008-10-31 08:49:48 51°24.192 2°45.944 26.2 10.2 20 27.1
2008-10-31 08:49:52 51°24.202 2°45.951 27 10.2 24 27.5
2008-10-31 08:49:58 51°24.218 2°45.961 27.8 10.1 22 27.6
2008-10-31 08:50:03 51°24.229 2°45.973 30.4 10 32 27.2
2008-10-31 08:50:08 51°24.242 2°45.984 33.5 10 29 26.3
2008-10-31 08:50:12 51°24.251 2°45.994 35 10.1 33 26.4
2008-10-31 08:50:18 51°24.265 2°46.008 36.9 10 33 26.1
2008-10-31 08:50:23 51°24.275 2°46.022 38.2 10 37 26.1
2008-10-31 08:50:28 51°24.287 2°46.035 39.8 9.9 36 25.9
2008-10-31 08:50:32 51°24.295 2°46.045 39.4 9.9 36 25.1
2008-10-31 08:50:38 51°24.308 2°46.062 40.6 9.9 39 25.1
2008-10-31 08:50:43 51°24.319 2°46.076 40.9 10 38 26.8
2008-10-31 08:50:48 51°24.329 2°46.09 41.3 9.9 41 27.7
2008-10-31 08:50:52 51°24.338 2°46.101 41.8 9.9 39 28.2
2008-10-31 08:50:58 51°24.351 2°46.118 41.5 9.9 40 28.1
2008-10-31 08:51:03 51°24.361 2°46.132 41.7 10 40 27.8
2008-10-31 08:51:08 51°24.372 2°46.146 42.2 10 40 27.8
2008-10-31 08:51:12 51°24.381 2°46.157 42.2 10.1 40 27.2
2008-10-31 08:51:18 51°24.393 2°46.174 42 10.1 40 26.4
2008-10-31 08:51:23 51°24.404 2°46.189 42.9 9.9 41 26.4
2008-10-31 08:51:28 51°24.414 2°46.203 42.8 10 40 26.9
2008-10-31 08:51:32 51°24.423 2°46.215 43 10 41 27
2008-10-31 08:51:38 51°24.435 2°46.232 43.2 10 41 26.4
2008-10-31 08:51:43 51°24.446 2°46.247 43.4 10 41 27
2008-10-31 08:51:48 51°24.456 2°46.261 43.3 10.1 40 27.4
2008-10-31 08:51:52 51°24.465 2°46.273 42.7 10 40 27.1
2008-10-31 08:51:58 51°24.478 2°46.289 42.3 10 39 27
2008-10-31 08:52:03 51°24.488 2°46.304 42.3 10 40 26.8
2008-10-31 08:52:08 51°24.499 2°46.317 42 10 38 26.9
2008-10-31 08:52:12 51°24.508 2°46.329 41.9 10 39 26.3
2008-10-31 08:52:18 51°24.521 2°46.345 41.9 10.1 39 24.2
2008-10-31 08:52:23 51°24.532 2°46.359 41.5 9.9 39 25.8
2008-10-31 08:52:28 51°24.543 2°46.373 41.5 9.9 40 26.6
2008-10-31 08:52:33 51°24.553 2°46.387 41.6 10.1 38 27.3
2008-10-31 08:52:38 51°24.564 2°46.401 41.1 9.9 38 27.6
2008-10-31 08:52:43 51°24.574 2°46.415 41.6 10 40 27.9
2008-10-31 08:52:48 51°24.585 2°46.429 42.4 10 40 27.8
2008-10-31 08:52:52 51°24.593 2°46.441 43 9.9 41 28.2
2008-10-31 08:52:58 51°24.606 2°46.458 43.7 10 41 28.3
2008-10-31 08:53:03 51°24.616 2°46.472 42.6 10.1 40 27.8
2008-10-31 08:53:08 51°24.627 2°46.487 42.9 10.1 41 27.1
2008-10-31 08:53:12 51°24.635 2°46.498 43 10 40 26.1
2008-10-31 08:53:18 51°24.648 2°46.516 43.7 10 43 26.1
2008-10-31 08:53:23 51°24.657 2°46.531 44.3 9.9 43 26.6
2008-10-31 08:53:28 51°24.667 2°46.547 45.6 9.9 45 26.4
2008-10-31 08:53:32 51°24.675 2°46.559 46.4 9.9 44 25.7
2008-10-31 08:53:38 51°24.687 2°46.578 46.4 10 46 25.1
2008-10-31 08:53:43 51°24.696 2°46.594 46.7 9.9 46 26.5
2008-10-31 08:53:48 51°24.706 2°46.61 47.4 9.9 46 27.6
2008-10-31 08:53:52 51°24.714 2°46.623 46.4 10.2 44 28.7
2008-10-31 08:53:58 51°24.725 2°46.642 46.9 10 48 28.8
2008-10-31 08:54:03 51°24.735 2°46.658 47.3 9.9 45 28.4
2008-10-31 08:54:08 51°24.744 2°46.674 47.2 9.8 47 27
2008-10-31 08:54:12 51°24.752 2°46.686 46.8 9.9 47 26.9
2008-10-31 08:54:18 51°24.763 2°46.705 47.4 9.9 46 27.3
2008-10-31 08:54:23 51°24.772 2°46.721 46.7 9.9 46 27
2008-10-31 08:54:28 51°24.781 2°46.739 47.8 10 50 26.2
2008-10-31 08:54:32 51°24.789 2°46.751 48.7 10 46 26.5
2008-10-31 08:54:38 51°24.8 2°46.772 48.2 10 50 26.5
2008-10-31 08:54:43 51°24.809 2°46.788 49.6 10 49 26.1
2008-10-31 08:54:48 51°24.817 2°46.806 50.4 10 52 25.7
2008-10-31 08:54:52 51°24.824 2°46.82 50.9 10 50 26
2008-10-31 08:54:58 51°24.835 2°46.841 51.1 10 52 26.3
2008-10-31 08:55:03 51°24.843 2°46.858 51.7 10 51 25.9
2008-10-31 08:55:08 51°24.852 2°46.875 51.2 10.1 50 25.9
2008-10-31 08:55:12 51°24.859 2°46.89 51.3 10.1 52 26.7
2008-10-31 08:55:18 51°24.869 2°46.91 51.4 10 50 27.1
2008-10-31 08:55:23 51°24.878 2°46.928 51.5 10 53 27
2008-10-31 08:55:28 51°24.886 2°46.945 52.2 10.1 52 27.1
2008-10-31 08:55:32 51°24.894 2°46.959 51.2 10 50 27.6
2008-10-31 08:55:38 51°24.904 2°46.98 50.8 10 52 28
2008-10-31 08:55:43 51°24.913 2°46.997 50.8 10 50 27.9
2008-10-31 08:55:48 51°24.922 2°47.014 49.5 10.1 49 27.3
2008-10-31 08:55:52 51°24.929 2°47.028 50 10 52 27.2
2008-10-31 08:55:58 51°24.94 2°47.048 51 10 49 26.7
2008-10-31 08:56:03 51°24.948 2°47.066 50 10.1 51 26.8
2008-10-31 08:56:08 51°24.957 2°47.083 50.9 10 52 26.5
2008-10-31 08:56:12 51°24.964 2°47.097 50.7 10.1 50 26.6
2008-10-31 08:56:18 51°24.975 2°47.118 50.5 10.1 51 26.4
2008-10-31 08:56:23 51°24.984 2°47.136 50.8 10.2 52 26.1
2008-10-31 08:56:28 51°24.992 2°47.153 51.1 10 52 26
2008-10-31 08:56:32 51°24.999 2°47.167 51.4 10.1 51 26
2008-10-31 08:56:38 51°25.01 2°47.188 50.8 10.1 52 26.3
2008-10-31 08:56:43 51°25.018 2°47.205 51.1 10 52 26.3
2008-10-31 08:56:48 51°25.027 2°47.223 51.2 10.1 51 26.2
2008-10-31 08:56:52 51°25.034 2°47.237 50 10.1 50 26
2008-10-31 08:56:58 51°25.044 2°47.257 50.3 10 52 25.8
2008-10-31 08:57:03 51°25.053 2°47.274 50.7 10.1 50 25.8
2008-10-31 08:57:08 51°25.062 2°47.292 49.4 10.1 50 25.8
2008-10-31 08:57:12 51°25.069 2°47.305 49.7 10 51 25.8
2008-10-31 08:57:18 51°25.08 2°47.326 49.7 10.2 50 25.8
2008-10-31 08:57:23 51°25.089 2°47.343 49.8 10.1 50 25.9
2008-10-31 08:57:28 51°25.097 2°47.361 50 10.1 52 25.8
2008-10-31 08:57:32 51°25.105 2°47.375 50.3 10.1 51 25.8
2008-10-31 08:57:38 51°25.115 2°47.396 50.6 10.1 53 25.5
2008-10-31 08:57:43 51°25.124 2°47.413 50.5 10.1 51 25.2
2008-10-31 08:57:48 51°25.132 2°47.431 51.4 10.1 54 25.2
2008-10-31 08:57:52 51°25.138 2°47.446 52.4 10.1 54 25.1
2008-10-31 08:57:58 51°25.149 2°47.467 52.1 10 53 25.2
2008-10-31 08:58:03 51°25.157 2°47.486 52.2 10 56 25
2008-10-31 08:58:08 51°25.165 2°47.505 53.6 10 56 25.2
2008-10-31 08:58:12 51°25.171 2°47.519 53.5 10.1 55 25
2008-10-31 08:58:18 51°25.18 2°47.541 53.6 9.9 56 25.3
2008-10-31 08:58:23 51°25.188 2°47.56 54.2 10 57 25.2
2008-10-31 08:58:28 51°25.196 2°47.578 53.9 10 56 25.6
2008-10-31 08:58:33 51°25.203 2°47.597 53.9 10.1 56 25.8
2008-10-31 08:58:38 51°25.212 2°47.615 53.8 10 55 25.7
2008-10-31 08:58:43 51°25.22 2°47.633 53.1 10 55 25.9
2008-10-31 08:58:48 51°25.227 2°47.652 53.1 10.1 56 25.9
2008-10-31 08:58:53 51°25.236 2°47.67 53.7 10.1 56 26.2
2008-10-31 08:58:58 51°25.243 2°47.689 54.3 10.1 57 26.7
2008-10-31 08:59:03 51°25.25 2°47.708 55.2 10.1 58 27
2008-10-31 08:59:08 51°25.258 2°47.727 55.4 10.2 58 27
2008-10-31 08:59:12 51°25.264 2°47.743 56.3 10.1 60 26.7
2008-10-31 08:59:18 51°25.272 2°47.766 57.1 10.2 59 26.3
2008-10-31 08:59:23 51°25.279 2°47.786 57.4 10.3 60 25.8
2008-10-31 08:59:28 51°25.286 2°47.805 57.6 10.2 61 25.9
2008-10-31 08:59:33 51°25.293 2°47.825 58 10 61 25.6
2008-10-31 08:59:38 51°25.301 2°47.844 57.4 10.1 59 25.7
2008-10-31 08:59:43 51°25.308 2°47.863 57 10.1 60 25.6
2008-10-31 08:59:48 51°25.315 2°47.882 56.9 10.1 58 26.1
2008-10-31 08:59:53 51°25.322 2°47.902 56.9 10.3 62 26.7
2008-10-31 08:59:58 51°25.33 2°47.921 57.3 10.1 59 26.7
2008-10-31 09:00:03 51°25.336 2°47.941 57.6 10.1 61 26.8
2008-10-31 09:00:08 51°25.343 2°47.961 58.2 10.2 60 27
2008-10-31 09:00:12 51°25.349 2°47.976 57.4 10.2 59 26.9
2008-10-31 09:00:18 51°25.357 2°48 57.6 10.2 62 26.9
2008-10-31 09:00:23 51°25.365 2°48.019 58.2 10.2 58 27.1
2008-10-31 09:00:28 51°25.372 2°48.038 57.1 10.2 59 27
2008-10-31 09:00:32 51°25.378 2°48.053 56.6 10.2 57 26.9
2008-10-31 09:00:38 51°25.386 2°48.077 56.5 10.2 61 26.8
2008-10-31 09:00:43 51°25.394 2°48.095 57.2 10.1 56 26.6
2008-10-31 09:00:48 51°25.402 2°48.115 56.1 10.2 58 26.6
2008-10-31 09:00:53 51°25.409 2°48.134 56.7 10.2 59 26.6
2008-10-31 09:00:58 51°25.417 2°48.153 56.4 10.1 57 26.5
2008-10-31 09:01:03 51°25.424 2°48.173 56.2 10.2 59 26.5
2008-10-31 09:01:08 51°25.432 2°48.192 56.3 10.2 58 26.6
2008-10-31 09:01:13 51°25.439 2°48.211 56.5 10.2 59 26.7
2008-10-31 09:01:18 51°25.446 2°48.231 56.9 10.2 59 26.5
2008-10-31 09:01:23 51°25.454 2°48.25 56.5 10.3 57 26.6
2008-10-31 09:01:28 51°25.462 2°48.269 55.9 10.2 58 26.8
2008-10-31 09:01:32 51°25.468 2°48.285 56.4 10.3 58 26.8
2008-10-31 09:01:38 51°25.477 2°48.308 56.3 10.3 59 26.9
2008-10-31 09:01:43 51°25.484 2°48.328 56.5 10.2 60 26.9
2008-10-31 09:01:48 51°25.491 2°48.347 57.7 10.2 60 26.8
2008-10-31 09:01:53 51°25.499 2°48.367 56.7 10.3 58 26.6
2008-10-31 09:01:58 51°25.506 2°48.387 56.8 10.3 60 25.9
2008-10-31 09:02:03 51°25.513 2°48.406 57.1 10.2 58 25.5
2008-10-31 09:02:08 51°25.52 2°48.426 56.5 10.3 60 24.9
2008-10-31 09:02:12 51°25.526 2°48.441 56.8 10.3 60 24.5
2008-10-31 09:02:18 51°25.535 2°48.466 57.3 10.3 61 24.1
2008-10-31 09:02:23 51°25.542 2°48.486 57.5 10.3 61 24
2008-10-31 09:02:28 51°25.549 2°48.506 58.1 10.3 62 23.7
2008-10-31 09:02:32 51°25.554 2°48.522 58.8 10.3 62 23.8
2008-10-31 09:02:38 51°25.563 2°48.545 58 10.3 60 23.7
2008-10-31 09:02:43 51°25.569 2°48.566 57.3 10.3 62 23.8
2008-10-31 09:02:48 51°25.576 2°48.585 58 10.3 61 23.8
2008-10-31 09:02:52 51°25.582 2°48.601 57.9 10.3 60 23.9